Sunflower Gold — JD2460 — position and weather

sailwx.info

Track history (hours):
 
Tides and Currents Weather Stations Pressure Air Temp Water Temp Dewpoint Dewpoint Depression Visibility Wind Speed Wind Dir Waves Ship Positions

Sunflower Gold

Last reported at 2015-May-05 11:22 UTC. Time now 2015-May-06 08:28 UTC.
Position N 34°34' E 134°50'.

Length 166 m; draft 5.8 m.

Type: Passenger vessel. MMSI: 431000331.

Date/timePositionNaut miles runAvg speedWind from/ knotsBaromVisibWave heightAir tempDewpointWater temp
2015-May-05 11:22N 34°34' E 134°50'1821.5
2015-May-05 10:33N 34°36' E 135°11'7 7.4
2015-May-05 09:33N 34°42' E 135°17'0 0.0
2015-May-05 08:33N 34°42' E 135°17'0 0.0
2015-May-05 07:33N 34°42' E 135°17'0 0.0
2015-May-05 06:33N 34°42' E 135°17'0 0.0
2015-May-05 05:33N 34°42' E 135°17'0 0.0
2015-May-05 04:33N 34°42' E 135°17'0 0.0
2015-May-05 03:33N 34°42' E 135°17'0 0.0
2015-May-05 02:33N 34°42' E 135°17'0 0.0
2015-May-05 01:33N 34°42' E 135°17'0 0.0
2015-May-05 00:27N 34°42' E 135°17'0 0.0
2015-May-04 23:33N 34°42' E 135°17'0 0.0
2015-May-04 22:33N 34°42' E 135°17'0 0.0
2015-May-04 21:33N 34°42' E 135°17'1312.8
2015-May-04 20:33N 34°35' E 135°04'8 0.2
2015-May-03 11:15N 34°36' E 134°54'1420.9
2015-May-03 10:33N 34°36' E 135°12'7 6.5
2015-May-03 09:29N 34°42' E 135°17'0 0.0
2015-May-03 08:23N 34°42' E 135°17'0 0.0
2015-May-03 07:23N 34°42' E 135°17'0 0.0
2015-May-03 06:29N 34°42' E 135°17'0 0.0
2015-May-03 05:23N 34°42' E 135°17'0 0.0
2015-May-03 04:29N 34°42' E 135°17'0 0.0
2015-May-03 03:29N 34°42' E 135°17'0 0.0
2015-May-03 02:23N 34°42' E 135°17'0 0.0
2015-May-03 01:17N 34°42' E 135°17'0 0.0
2015-May-03 00:29N 34°42' E 135°17'0 0.0
2015-May-02 23:29N 34°42' E 135°17'2 2.0
2015-May-02 22:33N 34°40' E 135°18'1515.0
2015-May-02 21:33N 34°37' E 135°01'14 0.4
2015-May-01 12:31N 34°33' E 134°45'2020.4
2015-May-01 11:33N 34°36' E 135°08'9 9.1
2015-May-01 10:33N 34°42' E 135°17'0 0.0
2015-May-01 09:33N 34°42' E 135°17'0 0.0
2015-May-01 08:33N 34°42' E 135°17'0 0.0
2015-May-01 07:33N 34°42' E 135°17'0 0.0
2015-May-01 06:33N 34°42' E 135°17'0 0.0
2015-May-01 05:33N 34°42' E 135°17'0 0.0
2015-May-01 04:33N 34°42' E 135°17'0 0.0
2015-May-01 03:33N 34°42' E 135°17'0 0.0
2015-May-01 02:21N 34°42' E 135°17'0 0.0
2015-May-01 01:27N 34°42' E 135°17'0 0.0
2015-May-01 00:33N 34°42' E 135°17'0 0.0
2015-Apr-30 23:33N 34°42' E 135°17'0 0.0
2015-Apr-30 22:33N 34°42' E 135°17'0 0.0
2015-Apr-30 21:33N 34°42' E 135°17'1312.6
2015-Apr-30 20:33N 34°35' E 135°04'8 0.3
2015-Apr-29 11:12N 34°36' E 134°54'1320.2
2015-Apr-29 10:33N 34°37' E 135°10'8 7.4
2015-Apr-29 09:31N 34°42' E 135°17'0 0.0
2015-Apr-29 08:31N 34°42' E 135°17'0 0.0
2015-Apr-29 07:31N 34°42' E 135°17'0 0.0
2015-Apr-29 06:31N 34°42' E 135°17'0 0.0
2015-Apr-29 05:31N 34°42' E 135°17'0 0.0
2015-Apr-29 04:25N 34°42' E 135°17'0 0.0
2015-Apr-29 03:31N 34°42' E 135°17'0 0.0
2015-Apr-29 02:31N 34°42' E 135°17'0 0.0
2015-Apr-29 01:31N 34°42' E 135°17'0 0.0
2015-Apr-29 00:31N 34°42' E 135°17'0 0.0
2015-Apr-28 23:31N 34°42' E 135°17'0 0.0
2015-Apr-28 22:31N 34°42' E 135°17'0 0.0
2015-Apr-28 21:33N 34°42' E 135°17'1212.5
2015-Apr-28 20:33N 34°35' E 135°05'12 0.3
2015-Apr-27 11:26N 34°35' E 134°51'1719.2
2015-Apr-27 10:33N 34°37' E 135°11'7 6.1
2015-Apr-27 09:22N 34°42' E 135°17'0 0.0
2015-Apr-27 08:28N 34°42' E 135°17'0 0.0
2015-Apr-27 07:28N 34°42' E 135°17'0 0.0
2015-Apr-27 06:28N 34°42' E 135°17'0 0.0
2015-Apr-27 05:22N 34°42' E 135°17'0 0.0
2015-Apr-27 04:28N 34°42' E 135°17'0 0.0
2015-Apr-27 03:28N 34°42' E 135°17'0 0.0
2015-Apr-27 02:28N 34°42' E 135°17'0 0.0
2015-Apr-27 01:28N 34°42' E 135°17'0 0.0
2015-Apr-27 00:16N 34°42' E 135°17'0 0.0
2015-Apr-26 23:28N 34°42' E 135°17'0 0.0
2015-Apr-26 22:28N 34°42' E 135°17'0 0.0
2015-Apr-26 21:33N 34°42' E 135°17'1211.7
2015-Apr-26 20:33N 34°35' E 135°06'2019.3
2015-Apr-26 19:31N 34°31' E 134°42'11 0.4
2015-Apr-25 12:10N 34°36' E 134°54'1118.0
2015-Apr-25 11:33N 34°36' E 135°07'  
Track history (hours):
 
Tides and Currents Weather Stations Pressure Air Temp Water Temp Dewpoint Dewpoint Depression Visibility Wind Speed Wind Dir Waves Ship Positions

Sunflower Gold

Last reported at 2015-May-05 11:22 UTC. Time now 2015-May-06 08:28 UTC.
Position N 34°34' E 134°50'.

Length 166 m; draft 5.8 m.

Type: Passenger vessel. MMSI: 431000331.

Date/timePositionNaut miles runAvg speedWind from/ knotsBaromVisibWave heightAir tempDewpointWater temp
2015-May-05 11:22N 34°34' E 134°50'1821.5
2015-May-05 10:33N 34°36' E 135°11'7 7.4
2015-May-05 09:33N 34°42' E 135°17'0 0.0
2015-May-05 08:33N 34°42' E 135°17'0 0.0
2015-May-05 07:33N 34°42' E 135°17'0 0.0
2015-May-05 06:33N 34°42' E 135°17'0 0.0
2015-May-05 05:33N 34°42' E 135°17'0 0.0
2015-May-05 04:33N 34°42' E 135°17'0 0.0
2015-May-05 03:33N 34°42' E 135°17'0 0.0
2015-May-05 02:33N 34°42' E 135°17'0 0.0
2015-May-05 01:33N 34°42' E 135°17'0 0.0
2015-May-05 00:27N 34°42' E 135°17'0 0.0
2015-May-04 23:33N 34°42' E 135°17'0 0.0
2015-May-04 22:33N 34°42' E 135°17'0 0.0
2015-May-04 21:33N 34°42' E 135°17'1312.8
2015-May-04 20:33N 34°35' E 135°04'8 0.2
2015-May-03 11:15N 34°36' E 134°54'1420.9
2015-May-03 10:33N 34°36' E 135°12'7 6.5
2015-May-03 09:29N 34°42' E 135°17'0 0.0
2015-May-03 08:23N 34°42' E 135°17'0 0.0
2015-May-03 07:23N 34°42' E 135°17'0 0.0
2015-May-03 06:29N 34°42' E 135°17'0 0.0
2015-May-03 05:23N 34°42' E 135°17'0 0.0
2015-May-03 04:29N 34°42' E 135°17'0 0.0
2015-May-03 03:29N 34°42' E 135°17'0 0.0
2015-May-03 02:23N 34°42' E 135°17'0 0.0
2015-May-03 01:17N 34°42' E 135°17'0 0.0
2015-May-03 00:29N 34°42' E 135°17'0 0.0
2015-May-02 23:29N 34°42' E 135°17'2 2.0
2015-May-02 22:33N 34°40' E 135°18'1515.0
2015-May-02 21:33N 34°37' E 135°01'14 0.4
2015-May-01 12:31N 34°33' E 134°45'2020.4
2015-May-01 11:33N 34°36' E 135°08'9 9.1
2015-May-01 10:33N 34°42' E 135°17'0 0.0
2015-May-01 09:33N 34°42' E 135°17'0 0.0
2015-May-01 08:33N 34°42' E 135°17'0 0.0
2015-May-01 07:33N 34°42' E 135°17'0 0.0
2015-May-01 06:33N 34°42' E 135°17'0 0.0
2015-May-01 05:33N 34°42' E 135°17'0 0.0
2015-May-01 04:33N 34°42' E 135°17'0 0.0
2015-May-01 03:33N 34°42' E 135°17'0 0.0
2015-May-01 02:21N 34°42' E 135°17'0 0.0
2015-May-01 01:27N 34°42' E 135°17'0 0.0
2015-May-01 00:33N 34°42' E 135°17'0 0.0
2015-Apr-30 23:33N 34°42' E 135°17'0 0.0
2015-Apr-30 22:33N 34°42' E 135°17'0 0.0
2015-Apr-30 21:33N 34°42' E 135°17'1312.6
2015-Apr-30 20:33N 34°35' E 135°04'8 0.3
2015-Apr-29 11:12N 34°36' E 134°54'1320.2
2015-Apr-29 10:33N 34°37' E 135°10'8 7.4
2015-Apr-29 09:31N 34°42' E 135°17'0 0.0
2015-Apr-29 08:31N 34°42' E 135°17'0 0.0
2015-Apr-29 07:31N 34°42' E 135°17'0 0.0
2015-Apr-29 06:31N 34°42' E 135°17'0 0.0
2015-Apr-29 05:31N 34°42' E 135°17'0 0.0
2015-Apr-29 04:25N 34°42' E 135°17'0 0.0
2015-Apr-29 03:31N 34°42' E 135°17'0 0.0
2015-Apr-29 02:31N 34°42' E 135°17'0 0.0
2015-Apr-29 01:31N 34°42' E 135°17'0 0.0
2015-Apr-29 00:31N 34°42' E 135°17'0 0.0
2015-Apr-28 23:31N 34°42' E 135°17'0 0.0
2015-Apr-28 22:31N 34°42' E 135°17'0 0.0
2015-Apr-28 21:33N 34°42' E 135°17'1212.5
2015-Apr-28 20:33N 34°35' E 135°05'12 0.3
2015-Apr-27 11:26N 34°35' E 134°51'1719.2
2015-Apr-27 10:33N 34°37' E 135°11'7 6.1
2015-Apr-27 09:22N 34°42' E 135°17'0 0.0
2015-Apr-27 08:28N 34°42' E 135°17'0 0.0
2015-Apr-27 07:28N 34°42' E 135°17'0 0.0
2015-Apr-27 06:28N 34°42' E 135°17'0 0.0
2015-Apr-27 05:22N 34°42' E 135°17'0 0.0
2015-Apr-27 04:28N 34°42' E 135°17'0 0.0
2015-Apr-27 03:28N 34°42' E 135°17'0 0.0
2015-Apr-27 02:28N 34°42' E 135°17'0 0.0
2015-Apr-27 01:28N 34°42' E 135°17'0 0.0
2015-Apr-27 00:16N 34°42' E 135°17'0 0.0
2015-Apr-26 23:28N 34°42' E 135°17'0 0.0
2015-Apr-26 22:28N 34°42' E 135°17'0 0.0
2015-Apr-26 21:33N 34°42' E 135°17'1211.7
2015-Apr-26 20:33N 34°35' E 135°06'2019.3
2015-Apr-26 19:31N 34°31' E 134°42'11 0.4
2015-Apr-25 12:10N 34°36' E 134°54'1118.0
2015-Apr-25 11:33N 34°36' E 135°07'  

Dump ship's entire track history